Time;durP1;ratioP1;P1;durP2;ratioP2;P2;SDS_P1;SDS_P2;PMS_P1;PMS_P2;Temp;Humidity;BMP_temperature;BMP_pressure;BME280_temperature;BME280_humidity;BME280_pressure;Samples;Min_cycle;Max_cycle;Signal;HPM_P1;HPM_P2
2022/03/01 00:03:33;;;;;;;;;;;;;;;1.8;72.69727;102875.9;;;;-82
2022/03/01 00:05:10;;;;;;;13.6;6.2;;;;;;;;;;;;;-82
2022/03/01 00:08:33;;;;;;;;;;;;;;;1.82;72.58105;102874.6;;;;-82
2022/03/01 00:13:33;;;;;;;;;;;;;;;1.79;72.65332;102876.6;;;;-82
2022/03/01 00:18:33;;;;;;;;;;;;;;;1.82;72.72168;102877.9;;;;-82
2022/03/01 00:23:33;;;;;;;;;;;;;;;1.82;72.72363;102881.6;;;;-82
2022/03/01 00:28:44;;;;;;;;;;;;;;;1.81;72.76563;102876.8;;;;-84
2022/03/01 00:33:33;;;;;;;;;;;;;;;1.84;72.68164;102876;;;;-77
2022/03/01 00:35:09;;;;;;;13.6;5.8;;;;;;;;;;;;;-78
2022/03/01 00:38:34;;;;;;;;;;;;;;;1.85;72.72656;102877.9;;;;-77
2022/03/01 00:43:34;;;;;;;;;;;;;;;1.87;72.66797;102881;;;;-77
2022/03/01 00:48:33;;;;;;;;;;;;;;;1.89;72.72363;102879.8;;;;-78
2022/03/01 00:53:33;;;;;;;;;;;;;;;1.92;72.72949;102877.1;;;;-78
2022/03/01 00:58:33;;;;;;;;;;;;;;;1.95;72.63477;102873.8;;;;-78
2022/03/01 01:03:33;;;;;;;;;;;;;;;1.98;72.69727;102873.6;;;;-77
2022/03/01 01:05:09;;;;;;;14;6.5;;;;;;;;;;;;;-77
2022/03/01 01:08:33;;;;;;;;;;;;;;;2.02;72.63672;102868.7;;;;-84
2022/03/01 01:13:33;;;;;;;;;;;;;;;2.02;72.54004;102862;;;;-81
2022/03/01 01:18:33;;;;;;;;;;;;;;;2.1;72.57617;102860;;;;-83
2022/03/01 01:23:33;;;;;;;;;;;;;;;2.14;72.33008;102851.8;;;;-82
2022/03/01 01:28:33;;;;;;;;;;;;;;;2.13;72.44824;102854.2;;;;-82
2022/03/01 01:33:33;;;;;;;;;;;;;;;2.1;72.27148;102852.5;;;;-82
2022/03/01 01:35:13;;;;;;;16.4;6.3;;;;;;;;;;;;;-82
2022/03/01 01:38:33;;;;;;;;;;;;;;;2.07;72.36328;102855;;;;-82
2022/03/01 01:43:33;;;;;;;;;;;;;;;2.05;72.7168;102853.4;;;;-81
2022/03/01 01:48:34;;;;;;;;;;;;;;;2.07;72.64551;102854.3;;;;-82
2022/03/01 01:53:33;;;;;;;;;;;;;;;2.06;72.65527;102845.9;;;;-82
2022/03/01 01:58:33;;;;;;;;;;;;;;;2.07;72.51563;102845.1;;;;-82
2022/03/01 02:03:33;;;;;;;;;;;;;;;2.07;72.56934;102846.6;;;;-82
2022/03/01 02:05:09;;;;;;;17.1;6.5;;;;;;;;;;;;;-81
2022/03/01 02:08:37;;;;;;;;;;;;;;;2.07;72.79785;102842;;;;-82
2022/03/01 02:13:33;;;;;;;;;;;;;;;2.14;72.61426;102838.5;;;;-81
2022/03/01 02:18:36;;;;;;;;;;;;;;;2.14;72.53809;102839.3;;;;-83
2022/03/01 02:23:34;;;;;;;;;;;;;;;2.24;72.81445;102843.9;;;;-81
2022/03/01 02:28:33;;;;;;;;;;;;;;;2.29;72.60645;102841.5;;;;-82
2022/03/01 02:33:33;;;;;;;;;;;;;;;2.32;72.51367;102839;;;;-81
2022/03/01 02:35:08;;;;;;;18.8;7.7;;;;;;;;;;;;;-81
2022/03/01 02:38:33;;;;;;;;;;;;;;;2.3;72.40137;102836.8;;;;-83
2022/03/01 02:43:33;;;;;;;;;;;;;;;2.28;72.62695;102832;;;;-81
2022/03/01 02:48:33;;;;;;;;;;;;;;;2.26;72.75391;102833.8;;;;-81
2022/03/01 02:53:34;;;;;;;;;;;;;;;2.31;72.83789;102831.4;;;;-81
2022/03/01 02:58:33;;;;;;;;;;;;;;;2.36;72.95605;102828.4;;;;-81
2022/03/01 03:03:34;;;;;;;;;;;;;;;2.35;72.66211;102824.9;;;;-81
2022/03/01 03:05:08;;;;;;;15.5;7;;;;;;;;;;;;;-82
2022/03/01 03:08:34;;;;;;;;;;;;;;;2.35;72.96582;102823.6;;;;-81
2022/03/01 03:13:33;;;;;;;;;;;;;;;2.37;72.78223;102821.1;;;;-81
2022/03/01 03:18:34;;;;;;;;;;;;;;;2.39;72.75586;102827.3;;;;-82
2022/03/01 03:23:33;;;;;;;;;;;;;;;2.4;72.82227;102826.2;;;;-82
2022/03/01 03:28:33;;;;;;;;;;;;;;;2.4;72.74609;102825.7;;;;-82
2022/03/01 03:33:33;;;;;;;;;;;;;;;2.4;72.71191;102828.5;;;;-82
2022/03/01 03:35:08;;;;;;;16.7;7.2;;;;;;;;;;;;;-81
2022/03/01 03:38:33;;;;;;;;;;;;;;;2.41;72.75684;102835.8;;;;-82
2022/03/01 03:43:33;;;;;;;;;;;;;;;2.42;72.95508;102837.6;;;;-82
2022/03/01 03:48:33;;;;;;;;;;;;;;;2.43;73.03418;102830.9;;;;-82
2022/03/01 03:53:34;;;;;;;;;;;;;;;2.47;73.01855;102826.1;;;;-82
2022/03/01 03:58:33;;;;;;;;;;;;;;;2.5;73.00293;102815;;;;-82
2022/03/01 04:03:33;;;;;;;;;;;;;;;2.53;73.04004;102820.3;;;;-81
2022/03/01 04:05:06;;;;;;;16.8;6.7;;;;;;;;;;;;;-82
2022/03/01 04:08:33;;;;;;;;;;;;;;;2.57;73.02637;102822;;;;-82
2022/03/01 04:13:33;;;;;;;;;;;;;;;2.59;72.91992;102822.2;;;;-82
2022/03/01 04:18:33;;;;;;;;;;;;;;;2.61;72.95605;102815;;;;-81
2022/03/01 04:23:33;;;;;;;;;;;;;;;2.62;73.02148;102816.4;;;;-82
2022/03/01 04:28:33;;;;;;;;;;;;;;;2.64;72.98047;102814.2;;;;-81
2022/03/01 04:33:33;;;;;;;;;;;;;;;2.65;72.9082;102816;;;;-82
2022/03/01 04:35:08;;;;;;;17.7;7;;;;;;;;;;;;;-82
2022/03/01 04:38:34;;;;;;;;;;;;;;;2.66;72.98535;102810.9;;;;-82
2022/03/01 04:43:34;;;;;;;;;;;;;;;2.68;72.9668;102805.2;;;;-80
2022/03/01 04:48:33;;;;;;;;;;;;;;;2.69;72.91406;102795.8;;;;-80
2022/03/01 04:53:33;;;;;;;;;;;;;;;2.69;72.9043;102796;;;;-81
2022/03/01 04:58:33;;;;;;;;;;;;;;;2.7;72.96094;102801;;;;-80
2022/03/01 05:03:33;;;;;;;;;;;;;;;2.7;72.92676;102798.2;;;;-83
2022/03/01 05:05:10;;;;;;;16.9;6.7;;;;;;;;;;;;;-81
2022/03/01 05:08:34;;;;;;;;;;;;;;;2.7;72.94922;102801.6;;;;-81
2022/03/01 05:13:33;;;;;;;;;;;;;;;2.71;73.06934;102802.4;;;;-83
2022/03/01 05:18:33;;;;;;;;;;;;;;;2.72;72.96191;102802.9;;;;-81
2022/03/01 05:23:36;;;;;;;;;;;;;;;2.72;73.03809;102799.6;;;;-80
2022/03/01 05:28:33;;;;;;;;;;;;;;;2.71;72.99316;102803.3;;;;-81
2022/03/01 05:33:33;;;;;;;;;;;;;;;2.72;73.0166;102797.9;;;;-81
2022/03/01 05:35:06;;;;;;;14.8;6.1;;;;;;;;;;;;;-81
2022/03/01 05:38:33;;;;;;;;;;;;;;;2.72;73.02734;102792.2;;;;-81
2022/03/01 05:43:33;;;;;;;;;;;;;;;2.73;73.07422;102792.9;;;;-81
2022/03/01 05:48:33;;;;;;;;;;;;;;;2.73;73.10645;102792.8;;;;-81
2022/03/01 05:53:33;;;;;;;;;;;;;;;2.74;73.10645;102800.9;;;;-82
2022/03/01 05:58:33;;;;;;;;;;;;;;;2.74;73.08691;102799.6;;;;-81
2022/03/01 06:03:34;;;;;;;;;;;;;;;2.76;73.11133;102802.6;;;;-81
2022/03/01 06:05:05;;;;;;;16.2;6.8;;;;;;;;;;;;;-81
2022/03/01 06:08:33;;;;;;;;;;;;;;;2.78;73.1582;102805.3;;;;-81
2022/03/01 06:13:33;;;;;;;;;;;;;;;2.8;73.08496;102810.4;;;;-81
2022/03/01 06:18:36;;;;;;;;;;;;;;;2.82;73.03516;102812.6;;;;-82
2022/03/01 06:23:36;;;;;;;;;;;;;;;2.85;73.07422;102822.1;;;;-81
2022/03/01 06:28:33;;;;;;;;;;;;;;;2.87;73.14258;102824.5;;;;-81
2022/03/01 06:33:33;;;;;;;;;;;;;;;2.92;73.09375;102833.2;;;;-76
2022/03/01 06:35:05;;;;;;;20.4;6.9;;;;;;;;;;;;;-77
2022/03/01 06:38:36;;;;;;;;;;;;;;;2.95;73.04785;102839.3;;;;-77
2022/03/01 06:43:33;;;;;;;;;;;;;;;2.99;72.97559;102840.8;;;;-76
2022/03/01 06:48:33;;;;;;;;;;;;;;;3.03;72.96191;102848.2;;;;-76
2022/03/01 06:53:33;;;;;;;;;;;;;;;3.06;72.94434;102855.3;;;;-76
2022/03/01 06:58:34;;;;;;;;;;;;;;;3.11;72.84375;102861.1;;;;-81
2022/03/01 07:03:43;;;;;;;;;;;;;;;3.14;72.75098;102864.3;;;;-80
2022/03/01 07:05:08;;;;;;;16;7;;;;;;;;;;;;;-81
2022/03/01 07:08:33;;;;;;;;;;;;;;;3.19;72.69336;102864.7;;;;-81
2022/03/01 07:13:33;;;;;;;;;;;;;;;3.24;72.60352;102865;;;;-82
2022/03/01 07:18:33;;;;;;;;;;;;;;;3.28;72.5459;102875.7;;;;-81
2022/03/01 07:23:33;;;;;;;;;;;;;;;3.32;72.57324;102885.9;;;;-76
2022/03/01 07:28:34;;;;;;;;;;;;;;;3.34;72.64258;102889.8;;;;-76
2022/03/01 07:33:33;;;;;;;;;;;;;;;3.35;72.58008;102877.6;;;;-77
2022/03/01 07:35:05;;;;;;;18.1;7;;;;;;;;;;;;;-78
2022/03/01 07:38:33;;;;;;;;;;;;;;;3.38;72.66016;102883.4;;;;-82
2022/03/01 07:43:34;;;;;;;;;;;;;;;3.44;72.71387;102884.2;;;;-82
2022/03/01 07:48:33;;;;;;;;;;;;;;;3.48;72.66699;102888.3;;;;-82
2022/03/01 07:53:33;;;;;;;;;;;;;;;3.52;72.65234;102888.6;;;;-75
2022/03/01 07:58:33;;;;;;;;;;;;;;;3.55;72.55859;102890.7;;;;-75
2022/03/01 08:03:33;;;;;;;;;;;;;;;3.6;72.5459;102891.6;;;;-76
2022/03/01 08:05:07;;;;;;;18.4;7.7;;;;;;;;;;;;;-76
2022/03/01 08:08:33;;;;;;;;;;;;;;;3.64;72.54199;102892.7;;;;-76
2022/03/01 08:13:34;;;;;;;;;;;;;;;3.7;72.64941;102899.4;;;;-76
2022/03/01 08:18:33;;;;;;;;;;;;;;;3.77;72.71387;102905.5;;;;-76
2022/03/01 08:23:33;;;;;;;;;;;;;;;3.83;72.6709;102901.6;;;;-75
2022/03/01 08:28:33;;;;;;;;;;;;;;;3.87;72.58008;102902.3;;;;-75
2022/03/01 08:33:33;;;;;;;;;;;;;;;3.91;72.67383;102903.8;;;;-78
2022/03/01 08:35:04;;;;;;;17;7.7;;;;;;;;;;;;;-75
2022/03/01 08:38:37;;;;;;;;;;;;;;;3.95;72.6582;102912.7;;;;-77
2022/03/01 08:43:39;;;;;;;;;;;;;;;3.98;72.55469;102918.5;;;;-78
2022/03/01 08:48:33;;;;;;;;;;;;;;;4.01;72.66895;102918.1;;;;-77
2022/03/01 08:53:33;;;;;;;;;;;;;;;4.05;72.76172;102922.2;;;;-78
2022/03/01 08:58:34;;;;;;;;;;;;;;;4.09;72.60449;102920;;;;-78
2022/03/01 09:03:36;;;;;;;;;;;;;;;4.11;72.59766;102931.7;;;;-81
2022/03/01 09:05:06;;;;;;;22.2;8.8;;;;;;;;;;;;;-77
2022/03/01 09:08:33;;;;;;;;;;;;;;;4.13;72.49219;102928.4;;;;-76
2022/03/01 09:13:32;;;;;;;;;;;;;;;4.16;72.5293;102938;;;;-77
2022/03/01 09:18:34;;;;;;;;;;;;;;;4.18;72.67578;102943.1;;;;-76
2022/03/01 09:23:33;;;;;;;;;;;;;;;4.21;72.56934;102944.8;;;;-76
2022/03/01 09:28:34;;;;;;;;;;;;;;;4.23;72.75977;102943.4;;;;-77
2022/03/01 09:33:33;;;;;;;;;;;;;;;4.27;72.68066;102946.3;;;;-77
2022/03/01 09:35:05;;;;;;;20.7;9.2;;;;;;;;;;;;;-77
2022/03/01 09:38:33;;;;;;;;;;;;;;;4.32;72.84277;102942.8;;;;-77
2022/03/01 09:43:33;;;;;;;;;;;;;;;4.42;72.5957;102941.4;;;;-77
2022/03/01 09:48:33;;;;;;;;;;;;;;;4.52;72.625;102946.9;;;;-76
2022/03/01 09:53:33;;;;;;;;;;;;;;;4.63;72.6416;102951.8;;;;-76
2022/03/01 09:58:33;;;;;;;;;;;;;;;4.71;72.30566;102949.7;;;;-77
2022/03/01 10:03:33;;;;;;;;;;;;;;;4.76;72.12891;102950.6;;;;-77
2022/03/01 10:05:04;;;;;;;23;9.2;;;;;;;;;;;;;-77
2022/03/01 10:10:16;;;;;;;;;;;;;;;4.82;72.28125;102951.6;;;;-78
2022/03/01 10:15:07;;;;;;;;;;;;;;;4.84;72.22949;102953.4;;;;-77
2022/03/01 10:20:10;;;;;;;;;;;;;;;4.88;72.46387;102960.7;;;;-77
2022/03/01 10:25:11;;;;;;;;;;;;;;;4.91;72.52344;102959;;;;-77
2022/03/01 10:30:06;;;;;;;;;;;;;;;4.92;72.51563;102957.6;;;;-77
2022/03/01 10:35:05;;;;;;;21.9;9.1;;;;;;;;;;;;;-77
2022/03/01 10:35:16;;;;;;;;;;;;;;;4.93;72.69434;102949.5;;;;-78
2022/03/01 10:40:17;;;;;;;;;;;;;;;4.99;72.85645;102955.3;;;;-77
2022/03/01 10:45:05;;;;;;;;;;;;;;;5.03;72.9502;102948.1;;;;-77
2022/03/01 10:50:08;;;;;;;;;;;;;;;5.11;73.0498;102950.7;;;;-78
2022/03/01 10:55:07;;;;;;;;;;;;;;;5.19;73.22949;102952;;;;-77
2022/03/01 11:00:09;;;;;;;;;;;;;;;5.29;73.0166;102951.3;;;;-77
2022/03/01 11:05:04;;;;;;;22.2;9.1;;;;;;;;;;;;;-78
2022/03/01 11:05:14;;;;;;;;;;;;;;;5.38;73.44629;102952.8;;;;-78
2022/03/01 11:10:06;;;;;;;;;;;;;;;5.46;72.75;102953.4;;;;-78
2022/03/01 11:15:10;;;;;;;;;;;;;;;5.56;72.55664;102951.6;;;;-78
2022/03/01 11:20:07;;;;;;;;;;;;;;;5.65;72.59473;102947.6;;;;-77
2022/03/01 11:25:05;;;;;;;;;;;;;;;5.73;72.43262;102944.4;;;;-78
2022/03/01 11:30:13;;;;;;;;;;;;;;;5.83;72.18652;102939;;;;-81
2022/03/01 11:35:07;;;;;;;19.6;9;;;;;;;;;;;;;-81
2022/03/01 11:35:23;;;;;;;;;;;;;;;5.88;72.04004;102937;;;;-81
2022/03/01 11:40:06;;;;;;;;;;;;;;;5.94;71.95215;102932.8;;;;-81
2022/03/01 11:45:14;;;;;;;;;;;;;;;5.97;71.95801;102934.2;;;;-81
2022/03/01 11:50:12;;;;;;;;;;;;;;;6;71.88574;102926.2;;;;-81
2022/03/01 11:55:06;;;;;;;;;;;;;;;6.04;72.16602;102914;;;;-81
2022/03/01 12:00:06;;;;;;;;;;;;;;;6.08;71.94141;102925.3;;;;-80
2022/03/01 12:05:06;;;;;;;22.8;9.5;;;;;;;;;;;;;-81
2022/03/01 12:05:23;;;;;;;;;;;;;;;6.07;71.89746;102923.2;;;;-80
2022/03/01 12:10:08;;;;;;;;;;;;;;;6.14;71.95215;102926.6;;;;-80
2022/03/01 12:15:07;;;;;;;;;;;;;;;6.15;71.8457;102919.6;;;;-81
2022/03/01 12:20:06;;;;;;;;;;;;;;;6.17;71.63965;102920.2;;;;-81
2022/03/01 12:25:07;;;;;;;;;;;;;;;6.18;71.53125;102926.2;;;;-80
2022/03/01 12:30:21;;;;;;;;;;;;;;;6.19;71.45605;102935.3;;;;-84
2022/03/01 12:35:06;;;;;;;23.5;9.8;;;;;;;;;;;;;-83
2022/03/01 12:35:15;;;;;;;;;;;;;;;6.17;71.45313;102926.7;;;;-81
2022/03/01 12:40:08;;;;;;;;;;;;;;;6.21;71.48145;102915.3;;;;-86
2022/03/01 12:45:05;;;;;;;;;;;;;;;6.22;71.55957;102919.8;;;;-81
2022/03/01 12:50:06;;;;;;;;;;;;;;;6.25;71.59668;102918.7;;;;-81
2022/03/01 12:55:07;;;;;;;;;;;;;;;6.27;71.56836;102909.4;;;;-81
2022/03/01 13:00:11;;;;;;;;;;;;;;;6.29;71.50586;102905.7;;;;-81
2022/03/01 13:05:09;;;;;;;22;9.6;;;;;;;;;;;;;-81
2022/03/01 13:05:29;;;;;;;;;;;;;;;6.28;71.34863;102901.2;;;;-81
2022/03/01 13:10:14;;;;;;;;;;;;;;;6.31;71.22363;102903.9;;;;-80
2022/03/01 13:15:05;;;;;;;;;;;;;;;6.31;71.29102;102906.7;;;;-80
2022/03/01 13:20:21;;;;;;;;;;;;;;;;;;;;;
2022/03/01 13:25:06;;;;;;;;;;;;;;;6.32;71.32324;102889.3;;;;-80
2022/03/01 13:30:06;;;;;;;;;;;;;;;6.34;71.34961;102898;;;;-79
2022/03/01 13:35:09;;;;;;;;;;;;;;;6.35;71.30566;102899.8;;;;-81
2022/03/01 13:35:20;;;;;;;21.3;10;;;;;;;;;;;;;-81
2022/03/01 13:40:05;;;;;;;;;;;;;;;6.35;71.15234;102903.6;;;;-80
2022/03/01 13:45:13;;;;;;;;;;;;;;;6.32;71.05957;102895.4;;;;-82
2022/03/01 13:50:08;;;;;;;;;;;;;;;6.3;71.16699;102889.7;;;;-85
2022/03/01 14:00:08;;;;;;;;;;;;;;;6.3;71.25293;102899.7;;;;-81
2022/03/01 14:05:07;;;;;;;;;;;;;;;6.28;71.15234;102897.5;;;;-80
2022/03/01 14:05:17;;;;;;;23.7;10.7;;;;;;;;;;;;;-80
2022/03/01 14:10:37;;;;;;;;;;;;;;;6.27;71.14063;102887.7;;;;-83
2022/03/01 14:15:08;;;;;;;;;;;;;;;6.26;71.21582;102889.4;;;;-81
2022/03/01 14:20:08;;;;;;;;;;;;;;;6.27;71.31445;102891.8;;;;-81
2022/03/01 14:25:13;;;;;;;;;;;;;;;6.28;71.39258;102889.4;;;;-82
2022/03/01 14:30:09;;;;;;;;;;;;;;;6.28;71.34863;102885.6;;;;-81
2022/03/01 14:35:08;;;;;;;;;;;;;;;6.27;71.38184;102884.8;;;;-83
2022/03/01 14:35:20;;;;;;;22.9;10.2;;;;;;;;;;;;;-83
2022/03/01 14:40:20;;;;;;;;;;;;;;;6.28;71.49316;102884.8;;;;-81
2022/03/01 14:45:06;;;;;;;;;;;;;;;6.28;71.50391;102881.5;;;;-81
2022/03/01 14:50:09;;;;;;;;;;;;;;;6.29;71.50586;102878.2;;;;-82
2022/03/01 14:55:06;;;;;;;;;;;;;;;6.28;71.48242;102885.6;;;;-81
2022/03/01 15:00:13;;;;;;;;;;;;;;;6.27;71.42578;102879.2;;;;-82
2022/03/01 15:05:06;;;;;;;;;;;;;;;6.27;71.44629;102880.3;;;;-81
2022/03/01 15:05:18;;;;;;;18.7;9.4;;;;;;;;;;;;;-81
2022/03/01 15:10:08;;;;;;;;;;;;;;;6.26;71.45703;102880.3;;;;-81
2022/03/01 15:15:09;;;;;;;;;;;;;;;6.26;71.5;102883;;;;-81
2022/03/01 15:20:10;;;;;;;;;;;;;;;6.26;71.47949;102881.2;;;;-81
2022/03/01 15:25:10;;;;;;;;;;;;;;;6.25;71.49805;102869.4;;;;-80
2022/03/01 15:30:10;;;;;;;;;;;;;;;6.24;71.49805;102866.3;;;;-78
2022/03/01 15:35:12;;;;;;;;;;;;;;;6.24;71.48535;102868.1;;;;-77
2022/03/01 15:35:23;;;;;;;19.7;9.6;;;;;;;;;;;;;-77
2022/03/01 15:40:09;;;;;;;;;;;;;;;6.23;71.46191;102868.5;;;;-78
2022/03/01 15:45:11;;;;;;;;;;;;;;;6.21;71.54688;102872;;;;-78
2022/03/01 15:50:06;;;;;;;;;;;;;;;6.19;71.44531;102872.2;;;;-77
2022/03/01 15:55:06;;;;;;;;;;;;;;;6.17;71.44238;102867.6;;;;-78
2022/03/01 16:00:09;;;;;;;;;;;;;;;6.15;71.52734;102862.3;;;;-79
2022/03/01 16:05:24;;;;;;;;;;;;;;;6.13;71.58691;102862.3;;;;-81
2022/03/01 16:05:44;;;;;;;20.2;9.2;;;;;;;;;;;;;-81
2022/03/01 16:10:08;;;;;;;;;;;;;;;6.1;71.93359;102865.9;;;;-82
2022/03/01 16:15:07;;;;;;;;;;;;;;;6.06;71.83008;102862.4;;;;-81
2022/03/01 16:20:11;;;;;;;;;;;;;;;6.04;72.0459;102866.6;;;;-81
2022/03/01 16:25:16;;;;;;;;;;;;;;;6;72.26855;102866.8;;;;-81
2022/03/01 16:30:14;;;;;;;;;;;;;;;5.96;72.70313;102860.9;;;;-83
2022/03/01 16:35:09;;;;;;;;;;;;;;;5.92;73.03516;102863.2;;;;-79
2022/03/01 16:35:44;;;;;;;20.4;9.8;;;;;;;;;;;;;-79
2022/03/01 16:45:06;;;;;;;;;;;;;;;5.85;74.02051;102869.7;;;;-79
2022/03/01 16:50:11;;;;;;;;;;;;;;;5.81;74.37598;102874;;;;-83
2022/03/01 16:55:08;;;;;;;;;;;;;;;5.77;74.60938;102870.6;;;;-81
2022/03/01 17:03:56;;;;;;;;;;;;;;;5.69;74.7627;102873.3;;;;-80
2022/03/01 17:12:55;;;;;;;;;;;;;;;5.62;74.99023;102880.8;;;;-82
2022/03/01 17:17:55;;;;;;;;;;;;;;;5.58;74.96191;102877.1;;;;-80
2022/03/01 17:22:59;;;;;;;;;;;;;;;5.53;75.10547;102877.4;;;;-79
2022/03/01 17:27:54;;;;;;;;;;;;;;;5.47;75.13965;102874;;;;-79
2022/03/01 17:32:54;;;;;;;;;;;;;;;5.44;75.20117;102872.1;;;;-80
2022/03/01 17:35:10;;;;;;;20.9;9.9;;;;;;;;;;;;;-80
2022/03/01 17:37:56;;;;;;;;;;;;;;;5.4;75.10547;102876;;;;-83
2022/03/01 17:42:55;;;;;;;;;;;;;;;5.36;75.13184;102877.9;;;;-82
2022/03/01 17:48:03;;;;;;;;;;;;;;;5.32;75.22363;102880.7;;;;-81
2022/03/01 17:52:56;;;;;;;;;;;;;;;5.29;75.19531;102885.8;;;;-79
2022/03/01 17:57:55;;;;;;;;;;;;;;;5.26;75.21094;102886.6;;;;-82
2022/03/01 18:03:04;;;;;;;;;;;;;;;5.22;75.11719;102885.4;;;;-82
2022/03/01 18:05:10;;;;;;;21.3;10.2;;;;;;;;;;;;;-81
2022/03/01 18:07:58;;;;;;;;;;;;;;;5.19;75.17871;102890.6;;;;-81
2022/03/01 18:12:57;;;;;;;;;;;;;;;5.16;75.2832;102899.1;;;;-81
2022/03/01 18:17:55;;;;;;;;;;;;;;;5.13;75.27637;102893.1;;;;-83
2022/03/01 18:23:08;;;;;;;;;;;;;;;;;;;;;
2022/03/01 18:27:54;;;;;;;;;;;;;;;5.07;75.22363;102887.9;;;;-80
2022/03/01 18:32:56;;;;;;;;;;;;;;;5.06;74.99023;102888.5;;;;-81
2022/03/01 18:35:14;;;;;;;22.9;9.7;;;;;;;;;;;;;-80
2022/03/01 18:37:56;;;;;;;;;;;;;;;5.03;75.08594;102883.9;;;;-84
2022/03/01 18:42:54;;;;;;;;;;;;;;;5.02;75.0166;102882.4;;;;-81
2022/03/01 18:47:55;;;;;;;;;;;;;;;5.01;74.87305;102876.1;;;;-82
2022/03/01 18:52:58;;;;;;;;;;;;;;;5;75.02441;102874.8;;;;-81
2022/03/01 18:57:57;;;;;;;;;;;;;;;4.97;75.00879;102877.4;;;;-82
2022/03/01 19:03:04;;;;;;;;;;;;;;;4.94;75.02637;102882.9;;;;-82
2022/03/01 19:05:20;;;;;;;23.4;10.4;;;;;;;;;;;;;-82
2022/03/01 19:07:59;;;;;;;;;;;;;;;4.92;75.03223;102887.3;;;;-81
2022/03/01 19:12:59;;;;;;;;;;;;;;;4.91;75.00879;102884.7;;;;-83
2022/03/01 19:17:55;;;;;;;;;;;;;;;4.87;75.01367;102887.9;;;;-82
2022/03/01 19:23:03;;;;;;;;;;;;;;;4.85;75.19434;102890.8;;;;-82
2022/03/01 19:28:09;;;;;;;;;;;;;;;4.84;75.18164;102890.3;;;;-80
2022/03/01 19:35:18;;;;;;;21.2;10.3;;;;;;;;;;;;;-80
2022/03/01 19:36:12;;;;;;;;;;;;;;;4.82;75.13672;102893.7;;;;-79
2022/03/01 19:40:59;;;;;;;;;;;;;;;4.8;75.1543;102896.4;;;;-78
2022/03/01 19:45:55;;;;;;;;;;;;;;;4.8;75.36133;102886.1;;;;-77
2022/03/01 19:51:01;;;;;;;;;;;;;;;;;;;;;
2022/03/01 20:01:01;;;;;;;;;;;;;;;4.75;75.35352;102881.6;;;;-81
2022/03/01 20:05:13;;;;;;;26.1;11.7;;;;;;;;;;;;;-81
2022/03/01 20:05:53;;;;;;;;;;;;;;;4.74;75.38281;102884.4;;;;-80
2022/03/01 20:10:52;;;;;;;;;;;;;;;4.72;75.45801;102888.1;;;;-80
2022/03/01 20:15:52;;;;;;;;;;;;;;;4.69;75.62793;102890.5;;;;-77
2022/03/01 20:20:51;;;;;;;;;;;;;;;4.69;75.58301;102893.4;;;;-79
2022/03/01 20:25:55;;;;;;;;;;;;;;;4.67;75.66602;102902.3;;;;-77
2022/03/01 20:30:51;;;;;;;;;;;;;;;4.65;75.66406;102900.4;;;;-77
2022/03/01 20:35:11;;;;;;;23.9;11.2;;;;;;;;;;;;;-78
2022/03/01 20:35:51;;;;;;;;;;;;;;;4.66;75.62012;102902.8;;;;-79
2022/03/01 20:40:52;;;;;;;;;;;;;;;4.65;75.62988;102897.9;;;;-79
2022/03/01 20:45:54;;;;;;;;;;;;;;;4.64;75.62793;102901.5;;;;-77
2022/03/01 20:50:54;;;;;;;;;;;;;;;4.64;75.7041;102909.3;;;;-79
2022/03/01 20:55:53;;;;;;;;;;;;;;;4.61;75.91992;102907.5;;;;-79
2022/03/01 21:00:51;;;;;;;;;;;;;;;4.61;75.88672;102898.3;;;;-80
2022/03/01 21:05:11;;;;;;;27.4;12.7;;;;;;;;;;;;;-80
2022/03/01 21:05:52;;;;;;;;;;;;;;;4.63;75.86719;102899.8;;;;-80
2022/03/01 21:10:52;;;;;;;;;;;;;;;4.62;75.9873;102905.4;;;;-81
2022/03/01 21:15:51;;;;;;;;;;;;;;;4.6;75.92773;102902.8;;;;-81
2022/03/01 21:20:58;;;;;;;;;;;;;;;4.59;76.01465;102902;;;;-81
2022/03/01 21:25:51;;;;;;;;;;;;;;;4.6;76.03711;102901.5;;;;-80
2022/03/01 21:30:51;;;;;;;;;;;;;;;4.58;76.08789;102897.5;;;;-81
2022/03/01 21:35:11;;;;;;;26.9;12.2;;;;;;;;;;;;;-80
2022/03/01 21:35:52;;;;;;;;;;;;;;;4.58;76.05566;102895.5;;;;-80
2022/03/01 21:40:56;;;;;;;;;;;;;;;4.58;76.14258;102901.8;;;;-80
2022/03/01 21:45:53;;;;;;;;;;;;;;;4.58;76.21777;102901.6;;;;-80
2022/03/01 21:50:52;;;;;;;;;;;;;;;4.57;76.30469;102901.8;;;;-78
2022/03/01 21:55:51;;;;;;;;;;;;;;;4.57;76.16309;102908.7;;;;-82
2022/03/01 22:00:51;;;;;;;;;;;;;;;4.57;76.26172;102907.1;;;;-81
2022/03/01 22:05:16;;;;;;;27;12.3;;;;;;;;;;;;;-82
2022/03/01 22:06:00;;;;;;;;;;;;;;;4.57;76.32715;102907.1;;;;-83
2022/03/01 22:10:52;;;;;;;;;;;;;;;4.57;76.42383;102906.9;;;;-80
2022/03/01 22:15:51;;;;;;;;;;;;;;;4.56;76.42383;102901;;;;-79
2022/03/01 22:20:51;;;;;;;;;;;;;;;4.57;76.29297;102901.3;;;;-77
2022/03/01 22:25:51;;;;;;;;;;;;;;;4.55;76.47656;102898.3;;;;-78
2022/03/01 22:30:52;;;;;;;;;;;;;;;4.55;76.33496;102886.5;;;;-78
2022/03/01 22:35:11;;;;;;;27.2;11.8;;;;;;;;;;;;;-78
2022/03/01 22:35:51;;;;;;;;;;;;;;;4.54;76.37695;102884.4;;;;-79
2022/03/01 22:40:51;;;;;;;;;;;;;;;4.53;76.375;102882;;;;-79
2022/03/01 22:45:51;;;;;;;;;;;;;;;4.53;76.37305;102884.9;;;;-80
2022/03/01 22:50:51;;;;;;;;;;;;;;;4.51;76.45801;102878.9;;;;-81
2022/03/01 22:55:51;;;;;;;;;;;;;;;4.51;76.37207;102884.2;;;;-80
2022/03/01 23:01:05;;;;;;;;;;;;;;;4.52;76.37207;102882.5;;;;-81
2022/03/01 23:05:11;;;;;;;30;12.7;;;;;;;;;;;;;-81
2022/03/01 23:05:51;;;;;;;;;;;;;;;4.52;76.48242;102887;;;;-82
2022/03/01 23:10:51;;;;;;;;;;;;;;;4.53;76.78906;102881.5;;;;-81
2022/03/01 23:15:54;;;;;;;;;;;;;;;4.55;76.7373;102878.4;;;;-80
2022/03/01 23:20:51;;;;;;;;;;;;;;;4.56;76.45605;102883.2;;;;-80
2022/03/01 23:25:51;;;;;;;;;;;;;;;4.57;76.35938;102877.3;;;;-81
2022/03/01 23:30:53;;;;;;;;;;;;;;;4.58;76.54688;102874.1;;;;-81
2022/03/01 23:35:13;;;;;;;29.9;13.9;;;;;;;;;;;;;-81
2022/03/01 23:35:51;;;;;;;;;;;;;;;4.59;76.38672;102872.2;;;;-83
2022/03/01 23:40:51;;;;;;;;;;;;;;;4.61;76.39941;102872.2;;;;-80
2022/03/01 23:45:51;;;;;;;;;;;;;;;4.61;76.41113;102867.2;;;;-80
2022/03/01 23:50:51;;;;;;;;;;;;;;;4.61;76.47754;102860.4;;;;-81
2022/03/01 23:55:54;;;;;;;;;;;;;;;4.63;76.59863;102856.9;;;;-80
